createdAt,value
2023-03-18T00:00:34.073Z,11.38
2023-03-18T00:01:33.973Z,11.35
2023-03-18T09:06:32.528Z,15.88
2023-03-18T09:07:32.379Z,15.91
2023-03-18T09:08:32.300Z,16.03
2023-03-18T09:09:43.134Z,16.04
2023-03-18T09:10:32.146Z,16.06
2023-03-18T09:11:32.067Z,16.04
2023-03-18T09:12:31.992Z,15.99
2023-03-18T09:13:31.919Z,15.73
2023-03-18T09:14:31.992Z,15.70
2023-03-18T09:15:32.124Z,15.70
2023-03-18T09:16:31.712Z,15.76
2023-03-18T09:17:50.998Z,15.79
2023-03-18T09:18:31.524Z,15.92
2023-03-18T09:19:31.448Z,16.00
2023-03-18T09:20:31.419Z,16.06
2023-03-18T09:21:31.290Z,16.23
2023-03-18T09:22:31.236Z,16.26
2023-03-18T09:23:31.136Z,16.37
2023-03-18T09:24:31.061Z,16.29
2023-03-18T09:25:31.299Z,16.22
2023-03-18T09:26:30.905Z,16.30
2023-03-18T09:27:30.825Z,16.27
2023-03-18T09:28:30.749Z,16.30
2023-03-18T09:29:30.679Z,16.25
2023-03-18T09:30:30.698Z,16.29
2023-03-18T09:31:30.518Z,16.42
2023-03-18T09:32:30.465Z,16.50
2023-03-18T09:33:30.514Z,16.59
2023-03-18T09:34:30.285Z,16.66
2023-03-18T09:35:30.264Z,16.62
2023-03-18T09:36:30.137Z,16.57
2023-03-18T09:37:30.057Z,16.63
2023-03-18T09:38:30.001Z,16.67
2023-03-18T09:39:29.909Z,16.82
2023-03-18T09:40:29.826Z,16.82
2023-03-18T09:41:29.818Z,16.74
2023-03-18T09:42:29.682Z,16.75
2023-03-18T09:43:29.605Z,16.67
2023-03-18T09:44:29.530Z,16.85
2023-03-18T09:45:29.449Z,16.89
2023-03-18T09:46:29.526Z,16.84
2023-03-18T09:49:35.653Z,16.75
2023-03-18T10:17:27.009Z,17.58
2023-03-18T10:18:26.916Z,17.46
2023-03-18T10:19:26.842Z,17.29
2023-03-18T10:20:26.772Z,17.44
2023-03-18T10:21:26.788Z,17.35
2023-03-18T10:22:26.612Z,17.30
2023-03-18T10:23:26.539Z,17.32
2023-03-18T10:24:26.462Z,17.30
2023-03-18T10:25:26.386Z,17.40
2023-03-18T10:26:26.347Z,17.47
2023-03-18T10:27:26.238Z,17.46
2023-03-18T10:28:26.179Z,17.51
2023-03-18T10:29:26.086Z,17.30
2023-03-18T10:30:26.015Z,17.20
2023-03-18T10:31:26.018Z,17.18
2023-03-18T10:32:31.162Z,17.28
2023-03-18T10:33:25.967Z,17.38
2023-03-18T10:34:25.709Z,17.35
2023-03-18T10:35:25.643Z,17.39
2023-03-18T10:36:25.561Z,17.25
2023-03-18T10:37:25.488Z,17.29
2023-03-18T10:38:25.418Z,17.43
2023-03-18T10:39:25.339Z,17.58
2023-03-18T10:40:25.262Z,17.73
2023-03-18T10:41:27.670Z,17.74
2023-03-18T10:42:25.113Z,17.76
2023-03-18T10:43:25.050Z,17.79
2023-03-18T10:44:25.018Z,17.63
2023-03-18T10:45:25.236Z,17.44
2023-03-18T10:46:24.948Z,17.36
2023-03-18T10:47:25.043Z,17.40
2023-03-18T10:48:24.671Z,17.30
2023-03-18T10:49:24.608Z,17.33
2023-03-18T10:50:24.525Z,17.28
2023-03-18T10:51:24.843Z,17.39
2023-03-18T10:52:24.366Z,17.66
2023-03-18T10:53:24.288Z,17.67
2023-03-18T10:54:24.230Z,17.79
2023-03-18T10:55:24.145Z,17.89
2023-03-18T10:56:24.068Z,17.98
2023-03-18T10:57:23.993Z,17.98
2023-03-18T10:58:23.914Z,18.02
2023-03-18T10:59:23.848Z,18.14
2023-03-18T11:00:23.771Z,18.32
2023-03-18T11:01:23.717Z,18.43
2023-03-18T11:02:23.668Z,18.59
2023-03-18T11:03:23.546Z,18.82
2023-03-18T11:04:23.478Z,18.76
2023-03-18T11:05:23.722Z,18.90
2023-03-18T11:06:23.322Z,18.90
2023-03-18T11:07:23.397Z,18.95
2023-03-18T11:08:23.178Z,19.06
2023-03-18T11:09:23.102Z,19.40
2023-03-18T11:10:23.158Z,19.76
2023-03-18T11:11:22.993Z,19.76
2023-03-18T11:12:22.882Z,20.06
2023-03-18T11:14:40.327Z,19.73
2023-03-18T11:15:40.246Z,19.79
2023-03-18T11:16:40.174Z,19.94
2023-03-18T11:17:40.102Z,19.90
2023-03-18T11:18:40.028Z,20.08
2023-03-18T11:19:39.997Z,20.43
2023-03-18T11:20:39.919Z,20.65
2023-03-18T11:21:40.375Z,20.49
2023-03-18T11:22:39.777Z,20.57
2023-03-18T11:23:39.699Z,20.87
2023-03-18T11:24:39.708Z,21.16
2023-03-18T11:25:39.525Z,21.69
2023-03-18T11:26:39.452Z,22.32
2023-03-18T11:27:39.381Z,22.41
2023-03-18T11:28:39.362Z,22.31
2023-03-18T11:29:45.587Z,22.65
2023-03-18T11:30:39.170Z,22.52
2023-03-18T11:31:39.140Z,22.35
2023-03-18T11:32:39.111Z,22.49
2023-03-18T11:33:38.965Z,22.35
2023-03-18T11:34:38.893Z,22.31
2023-03-18T11:35:39.096Z,22.07
2023-03-18T11:36:38.774Z,22.17
2023-03-18T11:37:38.685Z,21.57
2023-03-18T11:38:38.610Z,21.36
2023-03-18T11:39:38.538Z,21.38
2023-03-18T11:40:38.472Z,21.31
2023-03-18T11:41:38.404Z,21.06
2023-03-18T11:42:38.337Z,21.41
2023-03-18T11:44:25.755Z,21.86
2023-03-18T11:45:25.688Z,22.26
2023-03-18T11:46:25.636Z,22.53
2023-03-18T11:47:26.763Z,22.35
2023-03-18T11:48:25.487Z,21.79
2023-03-18T11:49:25.415Z,21.89
2023-03-18T11:50:26.556Z,22.24
2023-03-18T11:51:27.170Z,22.34
2023-03-18T11:52:25.330Z,22.60
2023-03-18T11:53:25.147Z,22.67
2023-03-18T11:54:25.076Z,22.52
2023-03-18T11:55:25.010Z,22.67
2023-03-18T11:56:24.974Z,22.50
2023-03-18T11:57:27.499Z,22.46
2023-03-18T11:58:24.809Z,22.47
2023-03-18T11:59:27.420Z,22.75
2023-03-18T12:00:24.673Z,22.86
2023-03-18T12:02:24.898Z,22.52
2023-03-18T12:03:24.474Z,22.50
2023-03-18T12:04:24.455Z,22.68
2023-03-18T12:05:24.420Z,22.79
2023-03-18T12:06:24.274Z,22.68
2023-03-18T12:07:27.052Z,22.69
2023-03-18T12:08:24.183Z,22.16
2023-03-18T12:12:00.161Z,21.95
2023-03-18T12:12:59.749Z,22.38
2023-03-18T12:18:08.464Z,24.34
2023-03-18T12:19:08.448Z,24.56
2023-03-18T12:20:08.336Z,24.78
2023-03-18T12:21:10.887Z,24.78
2023-03-18T12:22:08.216Z,24.59
2023-03-18T12:23:08.159Z,23.87
2023-03-18T12:24:08.124Z,24.11
2023-03-18T12:25:08.056Z,24.67
2023-03-18T12:26:07.951Z,24.16
2023-03-18T12:27:07.886Z,23.98
2023-03-18T12:28:07.825Z,24.40
2023-03-18T12:29:07.756Z,24.64
2023-03-18T12:30:07.690Z,24.64
2023-03-18T12:31:07.630Z,24.53
2023-03-18T12:32:07.560Z,24.44
2023-03-18T12:33:07.541Z,24.37
2023-03-18T12:34:07.438Z,24.10
2023-03-18T12:35:07.372Z,24.05
2023-03-18T12:36:07.417Z,24.63
2023-03-18T12:37:07.296Z,24.82
2023-03-18T12:38:07.180Z,25.00
2023-03-18T12:39:07.155Z,25.38
2023-03-18T12:40:07.054Z,25.12
2023-03-18T12:41:09.613Z,24.71
2023-03-18T12:42:06.930Z,24.12
2023-03-18T12:43:06.865Z,23.82
2023-03-18T12:44:06.810Z,23.78
2023-03-18T12:45:06.740Z,24.07
2023-03-18T12:46:06.714Z,23.80
2023-03-18T12:47:06.611Z,24.20
2023-03-18T12:48:06.545Z,24.86
2023-03-18T12:49:06.483Z,24.47
2023-03-18T12:50:06.420Z,24.59
2023-03-18T12:51:06.356Z,24.40
2023-03-18T12:52:06.333Z,24.40
2023-03-18T12:53:06.231Z,24.45
2023-03-18T12:54:06.168Z,24.01
2023-03-18T12:55:06.125Z,23.43
2023-03-18T12:56:06.042Z,22.49
2023-03-18T12:57:05.985Z,21.82
2023-03-18T12:58:05.924Z,21.63
2023-03-18T12:59:06.767Z,21.33
2023-03-18T13:00:05.788Z,21.60
2023-03-18T13:01:05.821Z,21.98
2023-03-18T13:02:05.795Z,22.67
2023-03-18T13:03:07.652Z,23.12
2023-03-18T13:04:05.548Z,23.78
2023-03-18T13:05:05.464Z,23.37
2023-03-18T13:06:05.396Z,22.81
2023-03-18T13:07:05.325Z,22.84
2023-03-18T13:08:05.259Z,22.67
2023-03-18T13:09:05.212Z,22.52
2023-03-18T13:10:05.138Z,21.98
2023-03-18T13:11:52.783Z,21.60
2023-03-18T13:13:44.988Z,20.82
2023-03-18T13:14:44.928Z,20.71
2023-03-18T13:15:44.852Z,20.59
2023-03-18T13:16:44.863Z,20.68
2023-03-18T13:17:44.734Z,20.86
2023-03-18T13:18:44.652Z,21.38
2023-03-18T13:19:44.648Z,21.63
2023-03-18T13:20:44.526Z,21.46
2023-03-18T13:21:48.087Z,21.60
2023-03-18T13:22:44.376Z,22.08
2023-03-18T13:23:44.310Z,22.35
2023-03-18T13:25:44.171Z,21.86
2023-03-18T13:26:44.101Z,21.54
2023-03-18T13:27:44.051Z,21.05
2023-03-18T13:28:43.967Z,20.94
2023-03-18T13:29:45.202Z,20.96
2023-03-18T13:30:43.849Z,21.11
2023-03-18T13:31:43.810Z,21.27
2023-03-18T13:32:43.707Z,21.14
2023-03-18T13:33:43.666Z,21.20
2023-03-18T13:34:43.584Z,21.30
2023-03-18T13:35:43.514Z,21.26
2023-03-18T13:36:43.409Z,21.29
2023-03-18T13:37:43.350Z,21.64
2023-03-18T13:38:43.275Z,21.60
2023-03-18T13:39:43.203Z,21.66
2023-03-18T13:40:43.137Z,21.57
2023-03-18T13:41:43.068Z,21.60
2023-03-18T13:42:42.999Z,21.60
2023-03-18T13:43:42.943Z,21.92
2023-03-18T13:44:42.854Z,22.20
2023-03-18T13:45:42.802Z,21.84
2023-03-18T13:47:42.726Z,21.49
2023-03-18T13:49:42.512Z,21.61
2023-03-18T13:50:42.485Z,21.61
2023-03-18T13:53:42.838Z,22.75
2023-03-18T13:54:42.373Z,23.27
2023-03-18T13:55:42.106Z,23.83
2023-03-18T13:56:42.039Z,23.79
2023-03-18T13:57:42.030Z,23.93
2023-03-18T13:58:41.891Z,24.23
2023-03-18T13:59:41.898Z,23.87
2023-03-18T14:00:41.764Z,23.95
2023-03-18T14:01:41.752Z,23.86
2023-03-18T14:02:41.623Z,23.72
2023-03-18T14:03:41.650Z,23.43
2023-03-18T14:04:41.789Z,22.78
2023-03-18T14:05:41.424Z,23.11
2023-03-18T14:06:41.363Z,23.65
2023-03-18T14:07:41.299Z,24.01
2023-03-18T14:08:41.222Z,23.53
2023-03-18T14:09:41.164Z,23.40
2023-03-18T14:10:41.189Z,23.55
2023-03-18T14:26:39.417Z,25.16
2023-03-18T14:27:39.332Z,24.90
2023-03-18T14:28:39.273Z,24.57
2023-03-18T14:29:39.205Z,24.04
2023-03-18T14:30:39.148Z,23.58
2023-03-18T14:31:39.187Z,22.38
2023-03-18T14:32:39.131Z,21.74
2023-03-18T14:33:38.947Z,21.60
2023-03-18T14:56:32.204Z,21.17
2023-03-18T14:57:36.155Z,20.83
2023-03-18T14:58:32.049Z,20.93
2023-03-18T14:59:31.979Z,20.89
2023-03-18T15:00:31.915Z,21.27
2023-03-18T15:02:14.370Z,21.27
2023-03-18T15:03:14.374Z,21.38
2023-03-18T15:04:15.406Z,21.29
2023-03-18T15:05:14.122Z,20.91
2023-03-18T15:06:14.052Z,20.76
2023-03-18T15:07:13.983Z,20.54
2023-03-18T15:08:13.914Z,20.42
2023-03-18T15:09:13.846Z,20.46
2023-03-18T15:10:14.094Z,20.09
2023-03-18T15:11:13.709Z,20.03
2023-03-18T15:12:13.653Z,20.15
2023-03-18T15:13:13.567Z,20.03
2023-03-18T15:14:13.490Z,19.88
2023-03-18T15:15:13.427Z,19.97
2023-03-18T15:16:13.371Z,20.31
2023-03-18T15:17:13.285Z,20.40
2023-03-18T15:18:13.208Z,20.40
2023-03-18T15:19:13.143Z,20.34
2023-03-18T15:20:13.923Z,20.23
2023-03-18T15:23:12.856Z,20.28
2023-03-18T15:24:12.786Z,20.40
2023-03-18T15:25:12.714Z,20.57
2023-03-18T15:26:12.893Z,20.57
2023-03-18T15:27:12.572Z,20.66
2023-03-18T15:28:12.521Z,20.65
2023-03-18T15:29:12.428Z,20.37
2023-03-18T15:30:12.359Z,20.28
2023-03-18T15:31:12.313Z,20.31
2023-03-18T15:32:12.218Z,20.47
2023-03-18T15:33:12.181Z,20.42
2023-03-18T15:34:12.073Z,20.37
2023-03-18T15:35:12.011Z,20.27
2023-03-18T15:36:11.968Z,20.09
2023-03-18T15:37:11.859Z,19.88
2023-03-18T15:38:11.787Z,19.97
2023-03-18T15:39:11.717Z,19.94
2023-03-18T15:40:11.643Z,19.95
2023-03-18T15:41:11.824Z,20.08
2023-03-18T15:42:11.500Z,20.08
2023-03-18T15:43:11.428Z,20.12
2023-03-18T15:44:11.378Z,20.23
2023-03-18T15:45:11.295Z,20.27
2023-03-18T15:46:11.250Z,20.40
2023-03-18T15:47:11.147Z,20.31
2023-03-18T15:48:11.069Z,20.23
2023-03-18T15:49:11.001Z,20.16
2023-03-18T15:50:13.549Z,20.18
2023-03-18T15:51:11.231Z,20.27
2023-03-18T15:52:10.779Z,20.19
2023-03-18T15:53:10.728Z,20.30
2023-03-18T15:54:10.638Z,20.12
2023-03-18T15:55:10.565Z,20.12
2023-03-18T15:56:10.493Z,19.88
2023-03-18T15:57:10.422Z,19.72
2023-03-18T15:58:10.348Z,19.69
2023-03-18T15:59:10.275Z,19.58
2023-03-18T16:00:10.227Z,19.71
2023-03-18T16:01:10.182Z,19.53
2023-03-18T16:02:12.680Z,19.48
2023-03-18T16:03:10.143Z,19.58
2023-03-18T16:04:09.913Z,19.45
2023-03-18T16:05:12.460Z,19.64
2023-03-18T16:06:09.771Z,19.65
2023-03-18T16:07:09.695Z,19.64
2023-03-18T16:08:09.621Z,19.63
2023-03-18T16:09:09.557Z,19.53
2023-03-18T16:10:09.479Z,19.40
2023-03-18T16:11:09.432Z,19.39
2023-03-18T16:12:09.332Z,19.33
2023-03-18T16:13:09.258Z,19.20
2023-03-18T16:14:09.190Z,18.94
2023-03-18T16:15:09.112Z,18.92
2023-03-18T16:16:09.095Z,18.74
2023-03-18T16:17:08.967Z,18.76
2023-03-18T16:18:08.893Z,18.53
2023-03-18T16:19:08.821Z,18.55
2023-03-18T16:20:08.757Z,18.52
2023-03-18T16:21:08.673Z,18.49
2023-03-18T16:22:08.607Z,18.29
2023-03-18T16:23:08.529Z,18.29
2023-03-18T16:24:08.470Z,18.22
2023-03-18T16:25:08.379Z,18.09
2023-03-18T16:26:08.308Z,17.94
2023-03-18T16:27:08.574Z,17.92
2023-03-18T16:28:08.160Z,18.02
2023-03-18T16:29:08.138Z,17.98
2023-03-18T16:30:08.360Z,18.02
2023-03-18T16:31:07.942Z,18.10
2023-03-18T16:32:07.927Z,17.92
2023-03-18T16:33:07.810Z,17.87
2023-03-18T16:34:07.965Z,17.76
2023-03-18T16:35:07.643Z,17.71
2023-03-18T16:36:07.668Z,17.63
2023-03-18T16:37:07.791Z,17.50
2023-03-18T16:38:07.421Z,17.36
2023-03-18T16:39:07.386Z,17.26
2023-03-18T16:40:07.474Z,17.02
2023-03-18T16:42:07.459Z,16.52
2023-03-18T16:43:07.081Z,16.37
2023-03-18T16:44:07.008Z,16.27
2023-03-18T16:45:06.899Z,16.30
2023-03-18T16:46:06.850Z,16.22
2023-03-18T16:47:06.742Z,16.10
2023-03-18T16:48:06.801Z,15.99
2023-03-18T16:49:06.627Z,15.94
2023-03-18T16:50:06.621Z,15.94
2023-03-18T16:51:07.862Z,15.88
2023-03-18T16:52:06.368Z,15.73
2023-03-18T16:53:06.291Z,15.66
2023-03-18T16:55:58.814Z,15.48
2023-03-18T16:56:58.740Z,15.41
2023-03-18T16:57:58.665Z,15.39
2023-03-18T16:59:56.081Z,15.20
2023-03-18T17:00:56.035Z,15.21
2023-03-18T17:01:56.264Z,15.20
2023-03-18T17:02:56.089Z,15.26
2023-03-18T17:03:55.844Z,15.26
2023-03-18T17:04:55.702Z,15.26
2023-03-18T17:05:56.672Z,15.23
2023-03-18T17:15:54.856Z,14.60
2023-03-18T17:16:54.821Z,14.50
2023-03-18T17:17:54.702Z,14.57
2023-03-18T17:18:54.625Z,14.41
2023-03-18T17:19:54.570Z,14.46
2023-03-18T17:20:54.505Z,14.46
2023-03-18T17:21:54.395Z,14.36
2023-03-18T17:22:54.318Z,14.34
2023-03-18T17:23:54.241Z,14.31
2023-03-18T17:24:54.202Z,14.36
2023-03-18T17:25:54.126Z,14.32
2023-03-18T17:26:54.254Z,14.21
2023-03-18T17:29:54.016Z,14.11
2023-03-18T17:30:53.778Z,14.14
2023-03-18T17:31:54.270Z,14.07
2023-03-18T17:35:53.414Z,13.84
2023-03-18T17:36:54.181Z,13.86
2023-03-18T17:38:53.083Z,13.70
2023-03-18T17:40:52.941Z,13.62
2023-03-18T17:41:52.885Z,13.66
2023-03-18T17:50:52.141Z,13.58
2023-03-18T17:54:51.858Z,13.52
2023-03-18T17:55:51.791Z,13.58
2023-03-18T17:56:51.707Z,13.62
2023-03-18T17:57:51.593Z,13.45
2023-03-18T17:59:51.478Z,13.40
2023-03-18T18:00:51.565Z,13.40
2023-03-18T18:01:51.585Z,13.38
2023-03-18T18:02:51.545Z,13.28
2023-03-18T18:10:50.609Z,13.25
2023-03-18T18:11:50.499Z,13.29
2023-03-18T18:12:50.451Z,13.25
2023-03-18T18:13:50.680Z,13.29
2023-03-18T18:14:50.306Z,13.38
2023-03-18T18:15:50.261Z,13.40
2023-03-18T18:17:50.060Z,13.47
2023-03-18T18:18:50.294Z,13.48
2023-03-18T18:19:50.090Z,13.38
2023-03-18T18:20:49.791Z,13.27
2023-03-18T18:21:49.717Z,13.29
2023-03-18T18:22:49.630Z,13.28
2023-03-18T18:23:49.566Z,13.25
2023-03-18T18:24:49.474Z,13.29
2023-03-18T18:25:49.396Z,13.09
2023-03-18T18:26:49.347Z,13.10
2023-03-18T18:27:49.240Z,13.07
2023-03-18T18:28:49.164Z,13.02
2023-03-18T18:29:49.085Z,13.03
2023-03-18T18:30:49.005Z,12.91
2023-03-18T18:31:48.975Z,12.88
2023-03-18T18:32:48.944Z,12.82
2023-03-18T18:33:48.784Z,12.85
2023-03-18T18:37:14.529Z,12.61
2023-03-18T18:38:14.449Z,12.67
2023-03-18T18:39:14.370Z,12.56
2023-03-18T18:40:14.292Z,12.49
2023-03-18T18:41:14.219Z,12.46
2023-03-18T18:42:14.156Z,12.30
2023-03-18T18:43:14.054Z,12.23
2023-03-18T18:44:14.196Z,12.33
2023-03-18T18:46:14.028Z,12.23
2023-03-18T18:47:13.738Z,12.12
2023-03-18T18:48:13.664Z,12.16
2023-03-18T18:49:13.582Z,12.16
2023-03-18T18:50:13.900Z,12.09
2023-03-18T18:51:13.424Z,12.15
2023-03-18T18:52:13.344Z,12.12
2023-03-18T18:53:13.265Z,12.09
2023-03-18T18:54:13.193Z,12.11
2023-03-18T18:55:13.117Z,12.08
2023-03-18T18:56:13.028Z,12.13
2023-03-18T18:57:12.949Z,12.09
2023-03-18T18:58:12.891Z,12.09
2023-03-18T19:32:24.205Z,11.76
2023-03-18T19:39:27.220Z,12.11
2023-03-18T19:40:29.507Z,12.06
2023-03-18T19:41:27.273Z,12.12
2023-03-18T19:42:26.979Z,11.98
2023-03-18T19:43:26.897Z,11.98
2023-03-18T19:44:26.825Z,11.95
2023-03-18T19:45:26.770Z,11.87
2023-03-18T19:46:26.660Z,11.94
2023-03-18T19:47:26.863Z,11.97
2023-03-18T19:48:26.541Z,12.05
2023-03-18T19:49:26.459Z,11.94
2023-03-18T19:50:26.378Z,12.09
2023-03-18T19:51:26.497Z,12.19
2023-03-18T19:52:26.223Z,12.16
2023-03-18T19:53:26.944Z,12.16
2023-03-18T19:54:26.306Z,12.12
2023-03-18T19:55:25.981Z,12.13
2023-03-18T19:56:25.903Z,12.11
2023-03-18T19:57:25.840Z,12.15
2023-03-18T19:58:25.982Z,12.09
2023-03-18T19:59:25.664Z,12.23
2023-03-18T20:00:25.589Z,12.23
2023-03-18T20:01:25.557Z,12.18
2023-03-18T20:03:27.041Z,12.18
2023-03-18T20:04:25.353Z,12.23
2023-03-18T20:06:25.105Z,12.34
2023-03-18T20:08:25.863Z,12.51
2023-03-18T20:09:24.834Z,12.44
2023-03-18T20:10:24.751Z,12.51
2023-03-18T20:11:24.682Z,12.48
2023-03-18T20:12:24.799Z,12.60
2023-03-18T20:13:24.717Z,12.49
2023-03-18T20:14:24.440Z,12.59
2023-03-18T20:15:24.360Z,12.59
2023-03-18T20:16:24.348Z,12.61
2023-03-18T20:17:24.415Z,12.60
2023-03-18T20:18:24.325Z,12.60
2023-03-18T20:19:24.067Z,12.53
2023-03-18T20:20:24.045Z,12.46
2023-03-18T20:21:23.895Z,12.37
2023-03-18T20:22:23.809Z,12.33
2023-03-18T20:23:23.827Z,12.28
2023-03-18T20:24:23.650Z,12.31
2023-03-18T20:25:23.737Z,12.39
2023-03-18T20:26:23.492Z,12.41
2023-03-18T20:27:23.614Z,12.37
2023-03-18T20:28:23.537Z,12.41
2023-03-18T20:29:23.455Z,12.39
2023-03-18T20:30:23.181Z,12.24
2023-03-18T20:31:23.230Z,12.27
2023-03-18T20:32:23.026Z,12.18
2023-03-18T20:33:22.942Z,12.19
2023-03-18T20:34:23.359Z,12.15
2023-03-18T20:35:22.796Z,12.12
2023-03-18T20:36:22.698Z,12.03
2023-03-18T20:37:22.623Z,12.16
2023-03-18T20:38:22.542Z,12.15
2023-03-18T20:39:22.464Z,12.12
2023-03-18T20:40:22.381Z,12.11
2023-03-18T20:41:22.553Z,12.11
2023-03-18T20:42:22.326Z,12.12
2023-03-18T20:43:22.151Z,12.06
2023-03-18T20:44:22.067Z,12.08
2023-03-18T20:45:21.983Z,12.08
2023-03-18T20:46:25.321Z,12.15
2023-03-18T20:47:21.825Z,12.12
2023-03-18T20:48:21.997Z,12.13
2023-03-18T20:49:21.921Z,12.15
2023-03-18T20:50:21.589Z,12.11
2023-03-18T20:51:21.640Z,12.13
2023-03-18T20:52:21.430Z,12.16
2023-03-18T20:53:21.352Z,12.18
2023-03-18T20:54:21.284Z,12.18
2023-03-18T20:55:21.191Z,12.12
2023-03-18T20:56:21.112Z,12.24
2023-03-18T20:57:21.054Z,12.36
2023-03-18T20:58:20.954Z,12.41
2023-03-18T20:59:20.882Z,12.39
2023-03-18T21:00:20.796Z,12.45
2023-03-18T21:01:21.142Z,12.53
2023-03-18T21:02:20.638Z,12.48
2023-03-18T21:03:20.561Z,12.46
2023-03-18T21:04:20.551Z,12.55
2023-03-18T21:05:20.409Z,12.61
2023-03-18T21:06:20.323Z,12.60
2023-03-18T21:07:20.368Z,12.46
2023-03-18T21:08:20.212Z,12.52
2023-03-18T21:09:20.082Z,12.53
2023-03-18T21:10:20.013Z,12.55
2023-03-18T21:11:19.931Z,12.51
2023-03-18T21:12:19.848Z,12.46
2023-03-18T21:13:19.766Z,12.51
2023-03-18T21:14:19.688Z,12.39
2023-03-18T21:15:19.609Z,12.28
2023-03-18T21:16:19.565Z,12.36
2023-03-18T21:17:19.448Z,12.30
2023-03-18T21:18:19.380Z,12.30
2023-03-18T21:19:19.291Z,12.36
2023-03-18T21:20:22.523Z,12.39
2023-03-18T21:21:19.181Z,12.31
2023-03-18T21:22:19.052Z,12.33
2023-03-18T21:23:18.998Z,12.28
2023-03-18T21:24:18.897Z,12.19
2023-03-18T21:25:18.819Z,12.13
2023-03-18T21:26:18.731Z,12.11
2023-03-18T21:27:18.854Z,12.23
2023-03-18T21:28:18.597Z,12.23
2023-03-18T21:29:18.495Z,12.16
2023-03-18T21:30:18.422Z,12.19
2023-03-18T21:31:18.490Z,12.08
2023-03-18T21:32:18.256Z,12.19
2023-03-18T21:33:18.178Z,12.13
2023-03-18T21:34:18.098Z,12.16
2023-03-18T21:35:18.021Z,12.23
2023-03-18T21:36:18.005Z,12.27
2023-03-18T21:37:17.893Z,12.26
2023-03-18T21:38:17.803Z,12.28
2023-03-18T21:39:17.869Z,12.33
2023-03-18T21:40:17.631Z,12.19
2023-03-18T21:41:17.562Z,12.11
2023-03-18T21:42:17.469Z,12.08
2023-03-18T21:43:17.382Z,12.11
2023-03-18T21:44:17.307Z,12.05
2023-03-18T21:45:17.223Z,11.93
2023-03-18T21:46:17.197Z,11.94
2023-03-18T21:47:17.069Z,11.78
2023-03-18T21:48:16.988Z,11.78
2023-03-18T21:49:16.910Z,11.75
2023-03-18T21:50:16.825Z,11.76
2023-03-18T21:51:31.605Z,11.69
2023-03-18T21:52:16.671Z,11.69
2023-03-18T21:53:16.695Z,11.64
2023-03-18T21:54:16.510Z,11.71
2023-03-18T21:55:16.443Z,11.75
2023-03-18T21:56:16.356Z,11.74
2023-03-18T21:57:16.270Z,11.71
2023-03-18T21:58:16.196Z,11.75
2023-03-18T21:59:16.120Z,11.79
2023-03-18T22:00:16.034Z,11.79
2023-03-18T22:01:15.974Z,11.78
2023-03-18T22:02:15.874Z,11.89
2023-03-18T22:03:15.800Z,11.83
2023-03-18T22:04:15.793Z,11.79
2023-03-18T22:05:15.636Z,11.78
2023-03-18T22:06:15.655Z,11.90
2023-03-18T22:07:15.478Z,11.87
2023-03-18T22:08:15.398Z,11.97
2023-03-18T22:09:15.321Z,12.02
2023-03-18T22:10:15.240Z,12.03
2023-03-18T22:11:15.181Z,12.13
2023-03-18T22:12:15.082Z,12.09
2023-03-18T22:13:15.003Z,12.09
2023-03-18T22:14:14.922Z,12.19
2023-03-18T22:15:14.849Z,12.21
2023-03-18T22:16:15.083Z,12.19
2023-03-18T22:17:14.684Z,12.19
2023-03-18T22:18:14.708Z,12.26
2023-03-18T22:19:14.525Z,12.24
2023-03-18T22:20:14.449Z,12.21
2023-03-18T22:21:14.372Z,12.16
2023-03-18T22:22:14.292Z,12.19
2023-03-18T22:23:14.212Z,12.13
2023-03-18T22:24:14.132Z,12.19
2023-03-18T22:25:14.049Z,12.28
2023-03-18T22:26:14.170Z,12.15
2023-03-18T22:27:13.909Z,12.12
2023-03-18T22:28:13.818Z,12.13
2023-03-18T22:29:13.733Z,12.15
2023-03-18T22:30:13.655Z,12.18
2023-03-18T22:31:13.617Z,12.19
2023-03-18T22:32:13.495Z,12.11
2023-03-18T22:33:13.446Z,12.12
2023-03-18T22:34:13.342Z,11.95
2023-03-18T22:35:13.250Z,11.98
2023-03-18T22:36:13.181Z,11.86
2023-03-18T22:37:13.145Z,11.81
2023-03-18T22:38:13.015Z,11.78
2023-03-18T22:39:12.935Z,11.79
2023-03-18T22:40:12.854Z,11.71
